createdAt,value
2023-02-06T00:01:43.643Z,23.83
2023-02-06T00:04:11.876Z,21.42
2023-02-06T00:06:40.580Z,23.05
2023-02-06T00:09:09.387Z,25.70
2023-02-06T00:11:38.254Z,29.10
2023-02-06T00:14:07.229Z,24.05
2023-02-06T00:16:37.226Z,22.88
2023-02-06T00:19:05.531Z,24.77
2023-02-06T00:21:34.367Z,24.25
2023-02-06T00:24:03.615Z,17.47
2023-02-06T00:26:32.495Z,22.90
2023-02-06T00:29:01.157Z,25.30
2023-02-06T00:31:29.959Z,20.38
2023-02-06T00:33:59.812Z,18.95
2023-02-06T00:36:28.328Z,21.65
2023-02-06T00:38:56.494Z,21.27
2023-02-06T00:41:25.072Z,21.40
2023-02-06T00:43:53.252Z,25.30
2023-02-06T00:46:22.013Z,27.40
2023-02-06T00:48:50.185Z,28.25
2023-02-06T00:51:20.318Z,28.75
2023-02-06T00:53:51.076Z,31.73
2023-02-06T00:56:20.654Z,30.35
2023-02-06T00:58:49.442Z,30.90
2023-02-06T01:01:18.046Z,27.33
2023-02-06T01:03:46.219Z,23.77
2023-02-06T01:06:14.619Z,23.13
2023-02-06T01:08:44.239Z,20.67
2023-02-06T01:11:18.033Z,15.02
2023-02-06T01:13:46.418Z,15.13
2023-02-06T01:16:17.277Z,15.63
2023-02-06T01:18:45.517Z,18.05
2023-02-06T01:21:16.278Z,14.20
2023-02-06T01:23:46.122Z,16.38
2023-02-06T01:26:16.113Z,17.75
2023-02-06T01:28:46.801Z,13.30
2023-02-06T01:31:17.274Z,14.70
2023-02-06T01:33:46.813Z,12.43
2023-02-06T01:36:16.296Z,13.57
2023-02-06T01:38:46.266Z,14.98
2023-02-06T01:41:16.336Z,15.05
2023-02-06T01:43:46.181Z,11.35
2023-02-06T01:46:14.993Z,10.80
2023-02-06T01:48:47.023Z,10.40
2023-02-06T01:51:19.840Z,11.52
2023-02-06T01:53:54.639Z,13.45
2023-02-06T01:56:23.849Z,10.52
2023-02-06T01:58:55.561Z,11.25
2023-02-06T02:01:24.695Z,16.02
2023-02-06T02:03:57.249Z,10.30
2023-02-06T02:06:27.881Z,12.43
2023-02-06T02:08:59.147Z,9.23
2023-02-06T02:11:32.910Z,11.13
2023-02-06T02:14:02.206Z,11.32
2023-02-06T02:16:44.165Z,12.05
2023-02-06T02:19:45.825Z,10.02
2023-02-06T02:22:38.453Z,8.88
2023-02-06T02:25:42.923Z,8.48
2023-02-06T02:28:45.091Z,10.55
2023-02-06T02:31:28.701Z,7.18
2023-02-06T02:34:21.397Z,9.18
2023-02-06T02:36:56.795Z,9.55
2023-02-06T02:39:35.592Z,8.10
2023-02-06T02:42:13.295Z,13.13
2023-02-06T02:44:49.584Z,7.82
2023-02-06T02:47:22.802Z,7.50
2023-02-06T02:49:51.831Z,7.22
2023-02-06T02:52:21.422Z,7.03
2023-02-06T02:54:49.982Z,11.32
2023-02-06T02:57:22.752Z,8.35
2023-02-06T02:59:53.038Z,7.25
2023-02-06T03:02:26.378Z,6.70
2023-02-06T03:04:58.564Z,9.77
2023-02-06T03:07:39.829Z,8.85
2023-02-06T03:10:15.810Z,6.82
2023-02-06T03:12:50.322Z,12.40
2023-02-06T03:15:28.071Z,9.02
2023-02-06T03:18:09.716Z,7.82
2023-02-06T03:20:41.475Z,7.22
2023-02-06T03:23:15.413Z,8.88
2023-02-06T03:25:46.710Z,10.93
2023-02-06T03:28:19.450Z,6.90
2023-02-06T03:31:28.834Z,14.65
2023-02-06T03:34:02.610Z,6.72
2023-02-06T03:36:31.393Z,12.60
2023-02-06T03:39:01.257Z,9.15
2023-02-06T03:41:40.526Z,8.65
2023-02-06T03:44:15.951Z,7.88
2023-02-06T03:46:45.305Z,11.50
2023-02-06T03:49:16.452Z,6.80
2023-02-06T03:51:48.721Z,10.60
2023-02-06T03:54:22.350Z,8.48
2023-02-06T03:56:55.216Z,9.85
2023-02-06T03:59:24.109Z,15.25
2023-02-06T04:01:56.321Z,16.23
2023-02-06T04:04:29.177Z,12.55
2023-02-06T04:07:00.173Z,9.07
2023-02-06T04:09:29.844Z,9.60
2023-02-06T04:11:58.651Z,8.50
2023-02-06T04:14:26.983Z,8.48
2023-02-06T04:16:58.358Z,6.57
2023-02-06T04:19:26.577Z,12.32
2023-02-06T04:21:55.137Z,12.93
2023-02-06T04:24:23.412Z,7.35
2023-02-06T04:26:58.448Z,10.80
2023-02-06T04:29:26.958Z,8.82
2023-02-06T04:32:02.095Z,9.27
2023-02-06T04:34:30.636Z,12.35
2023-02-06T04:36:59.926Z,8.90
2023-02-06T04:39:29.271Z,14.00
2023-02-06T04:41:59.182Z,9.73
2023-02-06T04:44:27.515Z,10.35
2023-02-06T04:46:56.560Z,6.53
2023-02-06T04:49:25.418Z,11.15
2023-02-06T04:51:53.935Z,10.50
2023-02-06T04:54:22.097Z,10.75
2023-02-06T04:56:50.825Z,10.40
2023-02-06T04:59:20.799Z,10.70
2023-02-06T05:01:49.392Z,10.10
2023-02-06T05:04:17.619Z,10.15
2023-02-06T05:06:46.037Z,7.77
2023-02-06T05:09:14.296Z,11.05
2023-02-06T05:11:42.907Z,9.82
2023-02-06T05:14:11.100Z,12.63
2023-02-06T05:16:41.147Z,11.55
2023-02-06T05:19:09.784Z,8.23
2023-02-06T05:21:38.297Z,11.98
2023-02-06T05:24:06.625Z,11.80
2023-02-06T05:26:35.606Z,9.45
2023-02-06T05:29:04.142Z,7.15
2023-02-06T05:31:32.981Z,9.00
2023-02-06T05:34:02.982Z,9.00
2023-02-06T05:36:31.511Z,7.85
2023-02-06T05:38:59.664Z,15.00
2023-02-06T05:41:28.115Z,11.67
2023-02-06T05:43:59.116Z,13.55
2023-02-06T05:46:27.751Z,10.48
2023-02-06T05:48:56.170Z,10.37
2023-02-06T05:51:26.057Z,9.43
2023-02-06T05:53:54.235Z,12.15
2023-02-06T05:56:22.699Z,10.20
2023-02-06T05:58:51.014Z,13.52
2023-02-06T06:01:19.958Z,11.32
2023-02-06T06:03:49.404Z,12.40
2023-02-06T06:06:17.884Z,11.18
2023-02-06T06:08:48.017Z,11.43
2023-02-06T06:11:16.609Z,15.38
2023-02-06T06:13:44.786Z,10.18
2023-02-06T06:16:13.292Z,11.57
2023-02-06T06:18:41.462Z,11.90
2023-02-06T06:21:09.974Z,8.23
2023-02-06T06:23:38.429Z,8.63
2023-02-06T06:26:08.551Z,15.02
2023-02-06T06:28:38.809Z,20.65
2023-02-06T06:31:11.798Z,28.95
2023-02-06T06:33:40.669Z,16.70
2023-02-06T06:36:11.865Z,16.20
2023-02-06T06:38:41.832Z,20.30
2023-02-06T06:41:12.062Z,17.70
2023-02-06T06:43:40.961Z,15.18
2023-02-06T06:46:09.662Z,15.27
2023-02-06T06:48:38.676Z,15.05
2023-02-06T06:51:08.151Z,14.95
2023-02-06T06:53:40.119Z,14.00
2023-02-06T06:56:13.717Z,13.88
2023-02-06T06:58:42.282Z,9.93
2023-02-06T07:01:11.006Z,12.02
2023-02-06T07:03:44.331Z,13.38
2023-02-06T07:06:13.345Z,14.23
2023-02-06T07:08:42.501Z,12.90
2023-02-06T07:11:15.368Z,16.50
2023-02-06T07:13:43.943Z,11.50
2023-02-06T07:16:13.227Z,12.23
2023-02-06T07:18:42.991Z,15.25
2023-02-06T07:21:11.774Z,17.58
2023-02-06T07:23:40.290Z,15.87
2023-02-06T07:26:09.319Z,14.93
2023-02-06T07:28:38.915Z,13.23
2023-02-06T07:31:09.122Z,13.07
2023-02-06T07:33:37.522Z,10.00
2023-02-06T07:36:06.388Z,16.42
2023-02-06T07:38:34.538Z,15.05
2023-02-06T07:41:04.159Z,19.23
2023-02-06T07:43:32.762Z,15.48
2023-02-06T07:46:03.454Z,11.37
2023-02-06T07:48:32.866Z,20.58
2023-02-06T07:51:06.364Z,22.13
2023-02-06T07:53:36.316Z,19.92
2023-02-06T07:56:11.076Z,22.67
2023-02-06T07:58:39.799Z,32.13
2023-02-06T08:01:10.302Z,14.43
2023-02-06T08:03:38.979Z,12.10
2023-02-06T08:06:10.940Z,13.93
2023-02-06T08:08:39.631Z,21.70
2023-02-06T08:11:08.663Z,16.67
2023-02-06T08:13:37.286Z,14.15
2023-02-06T08:16:07.751Z,14.32
2023-02-06T08:18:37.946Z,11.20
2023-02-06T08:21:08.426Z,10.27
2023-02-06T08:23:36.978Z,7.70
2023-02-06T08:26:07.786Z,14.88
2023-02-06T08:28:37.887Z,11.32
2023-02-06T08:31:11.059Z,9.35
2023-02-06T08:33:41.205Z,10.70
2023-02-06T08:36:10.132Z,11.48
2023-02-06T08:38:39.053Z,8.82
2023-02-06T08:41:15.056Z,13.13
2023-02-06T08:43:43.580Z,18.80
2023-02-06T08:46:11.796Z,13.35
2023-02-06T08:48:41.629Z,14.67
2023-02-06T08:51:11.154Z,24.65
2023-02-06T08:53:40.527Z,15.48
2023-02-06T08:56:10.739Z,12.95
2023-02-06T08:58:39.914Z,17.20
2023-02-06T09:01:09.301Z,20.77
2023-02-06T09:03:38.124Z,11.60
2023-02-06T09:06:10.280Z,17.03
2023-02-06T09:08:39.819Z,13.82
2023-02-06T09:11:09.387Z,14.98
2023-02-06T09:13:38.422Z,12.82
2023-02-06T09:16:08.046Z,12.38
2023-02-06T09:18:37.036Z,12.02
2023-02-06T09:21:11.202Z,14.55
2023-02-06T09:23:40.628Z,17.20
2023-02-06T09:26:09.403Z,16.30
2023-02-06T09:28:38.015Z,14.23
2023-02-06T09:31:06.564Z,14.50
2023-02-06T09:33:35.505Z,15.18
2023-02-06T09:36:06.402Z,17.73
2023-02-06T09:38:36.878Z,16.80
2023-02-06T09:41:22.586Z,15.48
2023-02-06T09:43:54.072Z,23.35
2023-02-06T09:46:28.717Z,19.85
2023-02-06T09:48:59.955Z,17.80
2023-02-06T09:51:40.082Z,15.00
2023-02-06T09:54:22.179Z,21.83
2023-02-06T09:56:56.442Z,18.90
2023-02-06T09:59:31.989Z,21.50
2023-02-06T10:02:15.625Z,18.58
2023-02-06T10:04:50.998Z,20.25
2023-02-06T10:07:33.844Z,24.85
2023-02-06T10:10:07.909Z,19.17
2023-02-06T10:12:40.914Z,19.05
2023-02-06T10:15:14.972Z,16.63
2023-02-06T10:17:51.824Z,19.88
2023-02-06T10:20:26.724Z,17.00
2023-02-06T10:23:13.668Z,14.98
2023-02-06T10:25:49.969Z,19.65
2023-02-06T10:28:24.831Z,16.00
2023-02-06T10:31:20.839Z,19.23
2023-02-06T10:33:59.065Z,18.17
2023-02-06T10:36:42.018Z,18.97
2023-02-06T10:39:53.984Z,21.58
2023-02-06T10:42:35.397Z,20.27
2023-02-06T10:45:19.708Z,19.65
2023-02-06T10:47:55.506Z,18.15
2023-02-06T10:50:30.070Z,23.20
2023-02-06T10:53:02.286Z,22.08
2023-02-06T10:55:36.774Z,23.83
2023-02-06T10:58:16.006Z,17.40
2023-02-06T11:00:46.042Z,15.95
2023-02-06T11:03:18.528Z,19.65
2023-02-06T11:05:48.090Z,20.13
2023-02-06T11:08:22.950Z,19.92
2023-02-06T11:10:51.457Z,30.55
2023-02-06T11:13:28.006Z,16.95
2023-02-06T11:16:02.663Z,15.18
2023-02-06T11:18:34.619Z,15.65
2023-02-06T11:21:03.914Z,15.10
2023-02-06T11:23:34.763Z,14.98
2023-02-06T11:26:14.137Z,13.05
2023-02-06T11:28:57.978Z,19.45
2023-02-06T11:31:42.877Z,14.55
2023-02-06T11:34:23.818Z,13.60
2023-02-06T11:36:56.558Z,17.10
2023-02-06T11:39:30.483Z,18.17
2023-02-06T11:42:04.480Z,17.23
2023-02-06T11:44:40.455Z,15.38
2023-02-06T11:47:22.751Z,15.65
2023-02-06T11:49:51.531Z,13.63
2023-02-06T11:52:30.874Z,16.83
2023-02-06T11:57:33.821Z,18.25
2023-02-06T12:00:23.392Z,17.80
2023-02-06T12:02:53.992Z,19.38
2023-02-06T12:05:28.190Z,19.67
2023-02-06T12:08:00.144Z,17.40
2023-02-06T12:10:31.892Z,24.33
2023-02-06T12:13:07.875Z,19.83
2023-02-06T12:15:47.221Z,18.83
2023-02-06T12:18:19.538Z,19.42
2023-02-06T12:20:52.987Z,17.25
2023-02-06T12:23:27.154Z,20.75
2023-02-06T12:25:58.775Z,24.30
2023-02-06T12:28:33.887Z,27.30
2023-02-06T12:31:10.657Z,18.55
2023-02-06T12:33:44.644Z,23.50
2023-02-06T12:36:21.017Z,23.25
2023-02-06T12:39:01.110Z,22.90
2023-02-06T12:41:57.148Z,27.77
2023-02-06T12:44:34.165Z,28.60
2023-02-06T12:47:16.079Z,24.73
2023-02-06T12:49:59.702Z,25.55
2023-02-06T12:52:32.526Z,25.75
2023-02-06T12:55:16.368Z,25.35
2023-02-06T12:57:45.679Z,22.20
2023-02-06T13:00:39.123Z,19.73
2023-02-06T13:03:31.219Z,20.75
2023-02-06T13:06:12.579Z,18.85
2023-02-06T13:08:46.224Z,19.40
2023-02-06T13:11:27.644Z,17.23
2023-02-06T13:14:06.336Z,19.65
2023-02-06T13:16:52.329Z,19.50
2023-02-06T13:19:26.512Z,19.95
2023-02-06T13:22:36.533Z,22.67
2023-02-06T13:25:53.017Z,23.85
2023-02-06T13:28:57.908Z,18.70
2023-02-06T13:31:32.049Z,18.45
2023-02-06T13:34:04.408Z,17.10
2023-02-06T13:36:49.473Z,17.33
2023-02-06T13:39:30.582Z,17.73
2023-02-06T13:42:04.591Z,23.05
2023-02-06T13:44:35.961Z,16.48
2023-02-06T13:47:48.964Z,19.08
2023-02-06T13:50:56.746Z,18.77
2023-02-06T13:53:42.021Z,19.00
2023-02-06T13:56:22.451Z,18.67
2023-02-06T13:58:53.685Z,23.33
2023-02-06T14:01:26.232Z,24.40
2023-02-06T14:03:56.402Z,30.80
2023-02-06T14:06:36.223Z,26.35
2023-02-06T14:09:15.931Z,21.83
2023-02-06T14:12:14.436Z,18.92
2023-02-06T14:15:02.664Z,19.52
2023-02-06T14:17:46.445Z,25.10
2023-02-06T14:20:27.071Z,21.67
2023-02-06T14:23:05.868Z,24.23
2023-02-06T14:25:49.693Z,21.88
2023-02-06T14:28:27.875Z,18.98
2023-02-06T14:31:06.131Z,29.20
2023-02-06T14:33:51.949Z,20.75
2023-02-06T14:36:37.245Z,25.35
2023-02-06T14:39:44.429Z,17.58
2023-02-06T14:42:20.336Z,22.38
2023-02-06T14:44:55.032Z,22.08
2023-02-06T14:47:27.638Z,25.13
2023-02-06T14:49:58.178Z,27.27
2023-02-06T14:52:31.550Z,21.85
2023-02-06T14:54:59.744Z,24.20
2023-02-06T14:57:32.261Z,26.90
2023-02-06T15:00:02.239Z,23.73
2023-02-06T15:02:34.766Z,21.35
2023-02-06T15:05:04.270Z,28.63
2023-02-06T15:07:36.356Z,26.52
2023-02-06T15:10:08.768Z,26.65
2023-02-06T15:12:40.874Z,26.75
2023-02-06T15:15:19.542Z,29.42
2023-02-06T15:17:58.462Z,29.08
2023-02-06T15:20:34.392Z,26.90
2023-02-06T15:23:17.006Z,31.08
2023-02-06T15:25:58.550Z,28.27
2023-02-06T15:28:31.158Z,24.52
2023-02-06T15:31:01.481Z,25.90
2023-02-06T15:33:31.952Z,28.15
2023-02-06T15:36:02.120Z,25.42
2023-02-06T15:38:33.962Z,28.92
2023-02-06T15:41:05.567Z,25.70
2023-02-06T15:43:36.799Z,29.23
2023-02-06T15:46:06.799Z,28.75
2023-02-06T15:48:38.736Z,28.70
2023-02-06T15:51:21.509Z,37.85
2023-02-06T15:53:51.787Z,31.65
2023-02-06T15:56:28.333Z,29.27
2023-02-06T15:59:01.500Z,28.40
2023-02-06T16:01:34.496Z,27.00
2023-02-06T16:04:08.906Z,27.52
2023-02-06T16:06:37.609Z,28.98
2023-02-06T16:09:08.613Z,25.75
2023-02-06T16:11:51.043Z,24.40
2023-02-06T16:14:24.404Z,22.63
2023-02-06T16:17:01.988Z,21.65
2023-02-06T16:19:46.622Z,22.73
2023-02-06T16:22:24.581Z,19.17
2023-02-06T16:24:55.329Z,19.75
2023-02-06T16:27:26.325Z,22.60
2023-02-06T16:29:58.729Z,18.63
2023-02-06T16:32:32.755Z,14.88
2023-02-06T16:35:02.297Z,19.95
2023-02-06T16:37:32.087Z,13.15
2023-02-06T16:40:00.610Z,19.90
2023-02-06T16:42:36.374Z,13.90
2023-02-06T16:45:10.468Z,18.98
2023-02-06T16:47:38.974Z,19.92
2023-02-06T16:50:10.236Z,19.10
2023-02-06T16:52:41.742Z,15.55
2023-02-06T16:55:19.706Z,12.80
2023-02-06T16:57:50.100Z,15.15
2023-02-06T17:00:23.373Z,16.63
2023-02-06T17:02:54.220Z,14.73
2023-02-06T17:05:24.530Z,14.30
2023-02-06T17:07:57.247Z,18.33
2023-02-06T17:10:27.598Z,24.85
2023-02-06T17:12:56.299Z,25.48
2023-02-06T17:15:29.195Z,25.58
2023-02-06T17:17:57.403Z,29.25
2023-02-06T17:20:33.294Z,29.13
2023-02-06T17:23:02.387Z,29.02
2023-02-06T17:25:32.247Z,28.88
2023-02-06T17:28:01.294Z,32.05
2023-02-06T17:30:36.179Z,27.98
2023-02-06T17:33:06.583Z,29.17
2023-02-06T17:35:36.921Z,33.72
2023-02-06T17:38:05.969Z,32.28
2023-02-06T17:40:36.301Z,26.80
2023-02-06T17:43:07.048Z,28.23
2023-02-06T17:45:39.405Z,23.85
2023-02-06T17:48:08.952Z,22.70
2023-02-06T17:50:38.466Z,26.40
2023-02-06T17:53:07.427Z,11.65
2023-02-06T17:55:37.115Z,19.95
2023-02-06T18:00:36.693Z,15.55
2023-02-06T18:03:05.916Z,15.00
2023-02-06T18:05:35.528Z,13.88
2023-02-06T18:08:04.468Z,14.68
2023-02-06T18:10:33.122Z,17.58
2023-02-06T18:13:01.432Z,22.13
2023-02-06T18:15:31.852Z,18.80
2023-02-06T18:18:01.551Z,14.20
2023-02-06T18:20:30.069Z,12.48
2023-02-06T18:22:58.243Z,5.20
2023-02-06T18:25:29.683Z,6.37
2023-02-06T18:27:58.078Z,8.27
2023-02-06T18:30:27.113Z,4.43
2023-02-06T18:32:55.937Z,6.22
2023-02-06T18:35:26.295Z,8.80
2023-02-06T18:37:57.396Z,4.90
2023-02-06T18:40:25.847Z,6.53
2023-02-06T18:42:54.157Z,6.10
2023-02-06T18:45:25.491Z,5.18
2023-02-06T18:47:54.196Z,6.07
2023-02-06T18:50:23.203Z,6.65
2023-02-06T18:52:52.804Z,4.38
2023-02-06T18:55:22.765Z,9.80
2023-02-06T18:57:51.213Z,10.75
2023-02-06T19:00:20.936Z,9.65
2023-02-06T19:05:18.428Z,11.10
2023-02-06T19:07:50.979Z,14.60
2023-02-06T19:10:22.232Z,18.35
2023-02-06T19:12:50.891Z,14.70
2023-02-06T19:15:20.160Z,18.42
2023-02-06T19:17:49.553Z,15.10
2023-02-06T19:20:22.332Z,12.35
2023-02-06T19:22:51.670Z,13.77
2023-02-06T19:25:22.130Z,10.95
2023-02-06T19:27:50.355Z,11.13
2023-02-06T19:30:18.942Z,11.70
2023-02-06T19:32:48.745Z,14.77
2023-02-06T19:35:19.782Z,14.73
2023-02-06T19:37:47.958Z,18.35
2023-02-06T19:40:16.429Z,13.75
2023-02-06T19:42:45.965Z,11.13
2023-02-06T19:45:14.610Z,14.93
2023-02-06T19:47:43.737Z,17.60
2023-02-06T19:52:42.693Z,17.95
2023-02-06T19:55:13.014Z,11.20
2023-02-06T19:57:41.677Z,11.85
2023-02-06T20:00:14.398Z,13.82
2023-02-06T20:02:42.884Z,12.40
2023-02-06T20:05:11.983Z,12.07
2023-02-06T20:07:40.226Z,9.90
2023-02-06T20:10:09.059Z,12.03
2023-02-06T20:12:37.828Z,14.23
2023-02-06T20:15:07.210Z,13.25
2023-02-06T20:17:36.884Z,17.90
2023-02-06T20:20:06.592Z,13.00
2023-02-06T20:25:03.596Z,17.58
2023-02-06T20:27:32.130Z,14.60
2023-02-06T20:30:00.677Z,17.50
2023-02-06T20:32:30.099Z,11.43
2023-02-06T20:35:00.601Z,14.80
2023-02-06T20:37:29.062Z,15.15
2023-02-06T20:39:57.820Z,15.63
2023-02-06T20:42:29.005Z,14.10
2023-02-06T20:44:57.460Z,19.75
2023-02-06T20:47:26.288Z,17.65
2023-02-06T20:49:55.586Z,10.38
2023-02-06T20:52:25.915Z,8.23
2023-02-06T20:54:54.954Z,12.27
2023-02-06T20:57:23.489Z,14.98
2023-02-06T20:59:52.340Z,17.17
2023-02-06T21:02:20.578Z,14.75
2023-02-06T21:04:52.119Z,13.23
2023-02-06T21:07:21.100Z,12.40
2023-02-06T21:09:52.223Z,12.00
2023-02-06T21:12:20.399Z,14.85
2023-02-06T21:14:48.882Z,20.00
2023-02-06T21:17:17.102Z,16.02
2023-02-06T21:19:45.930Z,12.80
2023-02-06T21:22:14.069Z,19.97
2023-02-06T21:24:42.805Z,14.87
2023-02-06T21:27:12.430Z,19.27
2023-02-06T21:29:40.963Z,13.18
2023-02-06T21:32:14.120Z,14.30
2023-02-06T21:34:43.855Z,17.80
2023-02-06T21:37:12.455Z,17.83
2023-02-06T21:39:41.288Z,14.20
2023-02-06T21:42:10.520Z,14.43
2023-02-06T21:44:42.177Z,14.05
2023-02-06T21:47:10.514Z,18.42
2023-02-06T21:49:39.323Z,17.63
2023-02-06T21:52:07.593Z,16.17
2023-02-06T21:54:36.746Z,15.05
2023-02-06T21:57:05.415Z,10.77
2023-02-06T21:59:34.211Z,12.80
2023-02-06T22:02:03.858Z,11.87
2023-02-06T22:04:32.419Z,12.73
2023-02-06T22:07:00.719Z,9.13
2023-02-06T22:09:29.323Z,11.50
2023-02-06T22:11:58.448Z,10.32
2023-02-06T22:16:55.183Z,8.38
2023-02-06T22:19:27.656Z,7.53
2023-02-06T22:21:55.886Z,8.82
2023-02-06T22:24:24.638Z,6.93
2023-02-06T22:26:52.781Z,7.80
2023-02-06T22:29:21.210Z,7.15
2023-02-06T22:31:49.582Z,9.43
2023-02-06T22:34:20.699Z,9.82
2023-02-06T22:36:51.709Z,8.20
2023-02-06T22:39:20.801Z,9.55
2023-02-06T22:41:50.039Z,10.45
2023-02-06T22:46:49.942Z,7.80
2023-02-06T22:49:20.017Z,10.90
2023-02-06T22:51:48.257Z,7.80
2023-02-06T22:54:18.148Z,6.63
2023-02-06T22:56:46.859Z,9.73
2023-02-06T22:59:18.296Z,12.95
2023-02-06T23:01:48.653Z,8.70
2023-02-06T23:04:20.339Z,7.55
2023-02-06T23:06:51.311Z,7.65
2023-02-06T23:09:24.388Z,8.73
2023-02-06T23:11:53.311Z,9.02
2023-02-06T23:14:22.599Z,10.18
2023-02-06T23:16:50.845Z,6.47
2023-02-06T23:19:20.483Z,8.05
2023-02-06T23:21:51.194Z,9.18
2023-02-06T23:24:22.411Z,9.77
2023-02-06T23:26:53.311Z,10.80
2023-02-06T23:29:23.047Z,9.40
2023-02-06T23:34:23.736Z,10.45
2023-02-06T23:36:53.086Z,9.68
2023-02-06T23:39:25.276Z,7.88
2023-02-06T23:41:53.448Z,12.27
2023-02-06T23:44:21.936Z,14.93
2023-02-06T23:46:50.078Z,6.70
2023-02-06T23:49:19.231Z,6.68
2023-02-06T23:51:47.474Z,8.75
2023-02-06T23:54:15.979Z,7.32
2023-02-06T23:56:45.899Z,8.75
2023-02-06T23:59:14.333Z,10.38
